createdAt,value
2018-03-04T00:01:50.028Z,64.17
2018-03-04T00:04:17.549Z,59.70
2018-03-04T00:06:45.078Z,60.40
2018-03-04T00:09:12.589Z,61.27
2018-03-04T00:11:40.558Z,63.63
2018-03-04T00:14:08.476Z,68.27
2018-03-04T00:16:36.009Z,65.70
2018-03-04T00:19:03.907Z,68.50
2018-03-04T00:21:31.433Z,71.97
2018-03-04T00:23:58.970Z,72.13
2018-03-04T00:26:26.500Z,66.00
2018-03-04T00:28:54.008Z,66.00
2018-03-04T00:31:21.943Z,70.97
2018-03-04T00:33:49.459Z,70.70
2018-03-04T00:36:16.990Z,75.57
2018-03-04T00:38:44.891Z,74.13
2018-03-04T00:41:12.424Z,80.73
2018-03-04T00:43:40.421Z,77.43
2018-03-04T00:46:07.947Z,76.97
2018-03-04T00:48:35.944Z,79.80
2018-03-04T00:51:03.547Z,83.30
2018-03-04T00:53:31.160Z,80.00
2018-03-04T00:55:58.696Z,78.60
2018-03-04T00:58:26.595Z,78.47
2018-03-04T01:00:54.122Z,75.13
2018-03-04T01:03:21.638Z,82.40
2018-03-04T01:05:49.607Z,77.30
2018-03-04T01:08:17.121Z,79.90
2018-03-04T01:10:44.660Z,67.93
2018-03-04T01:13:12.575Z,74.10
2018-03-04T01:15:40.103Z,74.30
2018-03-04T01:18:07.662Z,77.40
2018-03-04T01:20:35.252Z,71.07
2018-03-04T01:23:02.762Z,75.70
2018-03-04T01:25:30.338Z,80.33
2018-03-04T01:27:57.865Z,70.87
2018-03-04T01:30:25.789Z,65.87
2018-03-04T01:32:53.327Z,65.97
2018-03-04T01:35:20.836Z,69.37
2018-03-04T01:37:48.364Z,68.07
2018-03-04T01:40:15.873Z,59.33
2018-03-04T01:42:43.799Z,73.27
2018-03-04T01:45:11.313Z,66.93
2018-03-04T01:47:38.848Z,72.90
2018-03-04T01:50:06.354Z,73.33
2018-03-04T01:52:33.995Z,64.20
2018-03-04T01:55:01.518Z,72.80
2018-03-04T01:57:29.456Z,68.33
2018-03-04T01:59:56.961Z,64.93
2018-03-04T02:02:24.896Z,64.63
2018-03-04T02:04:52.408Z,67.17
2018-03-04T02:07:19.943Z,68.97
2018-03-04T02:09:47.850Z,68.50
2018-03-04T02:12:15.398Z,66.73
2018-03-04T02:14:42.929Z,67.60
2018-03-04T02:17:10.491Z,69.67
2018-03-04T02:19:38.007Z,60.23
2018-03-04T02:22:05.547Z,70.93
2018-03-04T02:24:33.060Z,62.17
2018-03-04T02:27:00.600Z,61.70
2018-03-04T02:29:28.516Z,62.20
2018-03-04T02:31:56.065Z,58.53
2018-03-04T02:34:23.587Z,59.60
2018-03-04T02:36:51.550Z,68.27
2018-03-04T02:39:19.469Z,56.37
2018-03-04T02:41:47.012Z,59.73
2018-03-04T02:44:14.530Z,67.80
2018-03-04T02:46:42.051Z,66.23
2018-03-04T02:49:09.560Z,61.03
2018-03-04T02:51:37.494Z,66.10
2018-03-04T02:54:05.015Z,58.50
2018-03-04T02:56:32.677Z,66.73
2018-03-04T02:59:00.338Z,68.43
2018-03-04T03:01:27.840Z,71.63
2018-03-04T03:03:55.453Z,62.63
2018-03-04T03:06:22.959Z,71.83
2018-03-04T03:08:50.508Z,71.43
2018-03-04T03:11:18.021Z,67.47
2018-03-04T03:13:45.560Z,67.37
2018-03-04T03:16:13.090Z,69.43
2018-03-04T03:18:40.614Z,73.33
2018-03-04T03:21:08.135Z,79.40
2018-03-04T03:23:36.074Z,85.60
2018-03-04T03:26:03.605Z,79.70
2018-03-04T03:28:31.150Z,80.17
2018-03-04T03:30:58.749Z,83.00
2018-03-04T03:33:26.271Z,85.70
2018-03-04T03:35:53.875Z,76.13
2018-03-04T03:38:21.405Z,82.53
2018-03-04T03:40:48.911Z,82.47
2018-03-04T03:43:16.844Z,82.70
2018-03-04T03:45:44.356Z,84.00
2018-03-04T03:48:11.860Z,83.00
2018-03-04T03:50:39.487Z,86.63
2018-03-04T03:53:06.999Z,83.43
2018-03-04T03:55:34.994Z,94.40
2018-03-04T03:58:02.562Z,78.10
2018-03-04T04:00:30.091Z,89.00
2018-03-04T04:02:58.003Z,96.50
2018-03-04T04:05:25.535Z,87.33
2018-03-04T04:07:53.073Z,94.13
2018-03-04T04:10:21.005Z,82.83
2018-03-04T04:12:48.512Z,84.13
2018-03-04T04:15:16.052Z,81.97
2018-03-04T04:17:43.963Z,78.27
2018-03-04T04:20:11.496Z,76.70
2018-03-04T04:22:39.003Z,74.97
2018-03-04T04:25:06.527Z,68.00
2018-03-04T04:27:34.031Z,76.97
2018-03-04T04:30:01.575Z,75.17
2018-03-04T04:32:29.112Z,82.87
2018-03-04T04:34:57.016Z,78.10
2018-03-04T04:37:24.539Z,81.57
2018-03-04T04:39:52.055Z,74.40
2018-03-04T04:42:19.977Z,80.30
2018-03-04T04:44:47.481Z,93.47
2018-03-04T04:47:15.450Z,87.43
2018-03-04T04:49:43.376Z,77.63
2018-03-04T04:52:10.919Z,85.53
2018-03-04T04:54:38.484Z,88.13
2018-03-04T04:57:06.017Z,85.83
2018-03-04T04:59:33.535Z,88.20
2018-03-04T05:02:01.545Z,77.77
2018-03-04T05:04:29.191Z,91.37
2018-03-04T05:06:57.588Z,75.07
2018-03-04T05:09:25.096Z,85.47
2018-03-04T05:11:52.606Z,77.33
2018-03-04T05:14:20.146Z,79.90
2018-03-04T05:16:47.664Z,72.17
2018-03-04T05:19:15.200Z,77.40
2018-03-04T05:21:42.699Z,78.83
2018-03-04T05:24:10.647Z,72.70
2018-03-04T05:26:38.568Z,76.37
2018-03-04T05:29:06.091Z,78.07
2018-03-04T05:31:34.006Z,77.63
2018-03-04T05:34:01.665Z,77.23
2018-03-04T05:36:29.185Z,71.90
2018-03-04T05:38:57.115Z,76.40
2018-03-04T05:41:24.637Z,65.30
2018-03-04T05:43:52.166Z,65.40
2018-03-04T05:46:20.075Z,65.50
2018-03-04T05:48:47.618Z,76.20
2018-03-04T05:51:15.156Z,76.80
2018-03-04T05:53:42.693Z,69.63
2018-03-04T05:56:10.612Z,71.77
2018-03-04T05:58:38.152Z,79.53
2018-03-04T06:01:05.700Z,63.63
2018-03-04T06:03:33.639Z,66.53
2018-03-04T06:06:01.254Z,70.57
2018-03-04T06:08:28.763Z,63.07
2018-03-04T06:10:56.697Z,81.93
2018-03-04T06:13:24.216Z,67.70
2018-03-04T06:15:51.775Z,71.30
2018-03-04T06:18:19.287Z,57.53
2018-03-04T06:20:46.816Z,58.37
2018-03-04T06:23:14.354Z,70.93
2018-03-04T06:25:41.885Z,57.43
2018-03-04T06:28:09.786Z,66.63
2018-03-04T06:30:37.362Z,57.30
2018-03-04T06:33:04.871Z,58.17
2018-03-04T06:35:32.798Z,52.23
2018-03-04T06:38:00.303Z,56.87
2018-03-04T06:40:28.239Z,50.43
2018-03-04T06:42:55.750Z,54.53
2018-03-04T06:45:23.351Z,57.50
2018-03-04T06:47:50.869Z,50.13
2018-03-04T06:50:18.407Z,51.93
2018-03-04T06:52:45.916Z,47.57
2018-03-04T06:55:13.459Z,54.93
2018-03-04T06:57:40.984Z,49.70
2018-03-04T07:00:08.522Z,42.60
2018-03-04T07:02:36.440Z,44.43
2018-03-04T07:05:03.979Z,41.67
2018-03-04T07:07:31.523Z,42.53
2018-03-04T07:09:59.040Z,45.47
2018-03-04T07:12:26.571Z,49.47
2018-03-04T07:14:54.075Z,39.77
2018-03-04T07:17:22.082Z,38.67
2018-03-04T07:19:49.599Z,34.23
2018-03-04T07:22:17.527Z,33.77
2018-03-04T07:24:45.062Z,33.47
2018-03-04T07:27:12.605Z,38.07
2018-03-04T07:29:40.246Z,30.93
2018-03-04T07:32:07.779Z,29.63
2018-03-04T07:34:35.287Z,34.33
2018-03-04T07:37:02.859Z,31.97
2018-03-04T07:39:30.423Z,32.13
2018-03-04T07:41:58.007Z,26.77
2018-03-04T07:44:25.545Z,21.97
2018-03-04T07:46:53.082Z,27.87
2018-03-04T07:49:20.614Z,31.20
2018-03-04T07:51:48.525Z,24.67
2018-03-04T07:54:16.063Z,27.97
2018-03-04T07:56:43.567Z,25.53
2018-03-04T07:59:11.104Z,26.03
2018-03-04T08:01:38.652Z,25.57
2018-03-04T08:04:06.191Z,24.63
2018-03-04T08:06:33.708Z,27.67
2018-03-04T08:09:01.242Z,25.90
2018-03-04T08:11:28.811Z,29.57
2018-03-04T08:13:56.323Z,25.63
2018-03-04T08:16:23.847Z,33.17
2018-03-04T08:18:51.410Z,23.60
2018-03-04T08:21:18.912Z,22.30
2018-03-04T08:23:46.421Z,21.27
2018-03-04T08:26:26.250Z,29.00
2018-03-04T08:28:53.768Z,32.40
2018-03-04T08:31:21.296Z,34.97
2018-03-04T08:33:49.192Z,34.47
2018-03-04T08:36:16.741Z,32.83
2018-03-04T08:38:44.316Z,38.60
2018-03-04T08:41:11.861Z,34.10
2018-03-04T08:43:39.371Z,34.07
2018-03-04T08:46:06.999Z,29.83
2018-03-04T08:48:34.517Z,26.37
2018-03-04T08:51:02.444Z,31.47
2018-03-04T08:53:29.971Z,38.43
2018-03-04T08:55:57.504Z,30.23
2018-03-04T08:58:25.412Z,33.13
2018-03-04T09:00:53.039Z,32.47
2018-03-04T09:03:20.970Z,33.03
2018-03-04T09:05:48.479Z,34.50
2018-03-04T09:08:16.012Z,34.27
2018-03-04T09:10:43.620Z,32.23
2018-03-04T09:13:11.167Z,34.10
2018-03-04T09:15:39.268Z,29.33
2018-03-04T09:18:06.811Z,31.80
2018-03-04T09:20:34.331Z,27.08
2018-03-04T09:23:02.267Z,27.83
2018-03-04T09:25:29.789Z,29.23
2018-03-04T09:27:57.367Z,32.25
2018-03-04T09:30:24.875Z,31.55
2018-03-04T09:32:52.413Z,28.92
2018-03-04T09:35:20.343Z,30.17
2018-03-04T09:37:47.884Z,30.55
2018-03-04T09:40:15.400Z,33.92
2018-03-04T09:42:43.355Z,31.03
2018-03-04T09:45:10.882Z,30.53
2018-03-04T09:47:38.418Z,30.08
2018-03-04T09:50:05.935Z,28.90
2018-03-04T09:52:33.475Z,28.98
2018-03-04T09:55:00.996Z,29.45
2018-03-04T09:57:28.519Z,32.20
2018-03-04T09:59:56.456Z,30.90
2018-03-04T10:02:24.003Z,31.67
2018-03-04T10:04:51.538Z,31.20
2018-03-04T10:07:19.196Z,33.45
2018-03-04T10:09:46.731Z,34.40
2018-03-04T10:12:14.659Z,30.65
2018-03-04T10:14:42.207Z,29.20
2018-03-04T10:17:09.732Z,21.42
2018-03-04T10:19:37.271Z,19.83
2018-03-04T10:22:05.180Z,21.65
2018-03-04T10:24:32.708Z,27.10
2018-03-04T10:27:00.260Z,23.73
2018-03-04T10:29:28.192Z,23.45
2018-03-04T10:31:55.711Z,23.70
2018-03-04T10:34:23.251Z,19.92
2018-03-04T10:36:50.780Z,18.35
2018-03-04T10:39:18.291Z,21.85
2018-03-04T10:41:45.824Z,17.42
2018-03-04T10:44:13.355Z,11.52
2018-03-04T10:46:40.896Z,14.70
2018-03-04T10:49:08.403Z,13.20
2018-03-04T10:51:35.947Z,9.45
2018-03-04T10:54:03.850Z,13.50
2018-03-04T10:56:31.383Z,11.10
2018-03-04T10:58:59.060Z,13.23
2018-03-04T11:01:28.428Z,15.93
2018-03-04T11:03:56.515Z,13.73
2018-03-04T11:09:45.855Z,13.25
2018-03-04T11:12:13.409Z,12.03
2018-03-04T11:14:40.922Z,17.00
2018-03-04T11:17:08.511Z,8.90
2018-03-04T11:19:36.086Z,11.60
2018-03-04T11:22:03.619Z,12.60
2018-03-04T11:24:31.135Z,11.23
2018-03-04T11:26:59.071Z,12.57
2018-03-04T11:29:26.583Z,13.07
2018-03-04T11:31:54.112Z,13.33
2018-03-04T11:34:22.020Z,21.87
2018-03-04T11:36:49.579Z,16.80
2018-03-04T11:39:17.093Z,15.27
2018-03-04T11:41:44.627Z,17.33
2018-03-04T11:44:12.167Z,16.23
2018-03-04T11:46:39.684Z,14.80
2018-03-04T11:49:07.721Z,11.87
2018-03-04T11:51:35.339Z,13.67
2018-03-04T11:54:02.884Z,13.37
2018-03-04T11:56:30.396Z,13.90
2018-03-04T11:58:58.019Z,15.13
2018-03-04T12:01:25.625Z,14.93
2018-03-04T12:03:53.159Z,23.53
2018-03-04T12:06:20.769Z,18.50
2018-03-04T12:08:48.303Z,16.37
2018-03-04T12:11:15.831Z,18.20
2018-03-04T12:13:43.392Z,17.27
2018-03-04T12:16:10.891Z,17.23
2018-03-04T12:18:38.823Z,20.47
2018-03-04T12:21:06.319Z,15.20
2018-03-04T12:23:34.248Z,14.63
2018-03-04T12:26:01.775Z,12.13
2018-03-04T12:28:29.297Z,16.10
2018-03-04T12:30:57.195Z,16.17
2018-03-04T12:33:24.727Z,14.97
2018-03-04T12:35:52.627Z,13.97
2018-03-04T12:38:20.174Z,13.23
2018-03-04T12:40:47.684Z,14.17
2018-03-04T12:43:15.190Z,12.10
2018-03-04T12:45:42.722Z,17.03
2018-03-04T12:48:10.644Z,21.47
2018-03-04T12:50:38.171Z,13.47
2018-03-04T12:53:05.679Z,16.43
2018-03-04T12:55:33.265Z,13.83
2018-03-04T12:58:00.767Z,13.90
2018-03-04T13:00:28.324Z,13.00
2018-03-04T13:02:55.836Z,12.43
2018-03-04T13:05:23.758Z,10.37
2018-03-04T13:07:51.452Z,11.07
2018-03-04T13:10:18.986Z,11.70
2018-03-04T13:12:46.500Z,13.07
2018-03-04T13:15:14.032Z,13.20
2018-03-04T13:17:41.955Z,10.23
2018-03-04T13:20:09.483Z,14.60
2018-03-04T13:22:36.977Z,11.03
2018-03-04T13:25:04.497Z,11.63
2018-03-04T13:27:32.017Z,13.33
2018-03-04T13:29:59.553Z,11.03
2018-03-04T13:32:27.099Z,9.63
2018-03-04T13:34:54.616Z,11.37
2018-03-04T13:37:22.563Z,12.43
2018-03-04T13:39:50.072Z,10.37
2018-03-04T13:42:17.597Z,12.93
2018-03-04T13:44:45.491Z,13.03
2018-03-04T13:47:13.022Z,12.77
2018-03-04T13:49:40.563Z,11.57
2018-03-04T13:52:08.080Z,9.07
2018-03-04T13:54:35.606Z,14.17
2018-03-04T13:57:03.530Z,19.47
2018-03-04T13:59:31.041Z,13.83
2018-03-04T14:01:58.587Z,18.10
2018-03-04T14:04:26.487Z,22.37
2018-03-04T14:06:54.092Z,17.50
2018-03-04T14:09:22.008Z,17.97
2018-03-04T14:11:49.565Z,18.20
2018-03-04T14:14:17.079Z,17.47
2018-03-04T14:16:44.991Z,19.87
2018-03-04T14:19:12.528Z,22.23
2018-03-04T14:21:40.052Z,22.43
2018-03-04T14:24:07.582Z,22.57
2018-03-04T14:26:35.206Z,22.60
2018-03-04T14:29:02.735Z,19.43
2018-03-04T14:31:30.254Z,19.73
2018-03-04T14:33:57.787Z,21.03
2018-03-04T14:36:25.304Z,22.37
2018-03-04T14:38:52.839Z,18.73
2018-03-04T14:41:20.347Z,19.20
2018-03-04T14:43:48.333Z,22.63
2018-03-04T14:46:15.895Z,18.27
2018-03-04T14:48:43.421Z,19.50
2018-03-04T14:51:11.356Z,19.23
2018-03-04T14:53:38.881Z,18.63
2018-03-04T14:56:06.403Z,19.40
2018-03-04T14:58:34.308Z,18.40
2018-03-04T15:01:01.842Z,24.13
2018-03-04T15:03:29.358Z,17.70
2018-03-04T15:05:56.983Z,13.10
2018-03-04T15:08:24.499Z,15.37
2018-03-04T15:10:52.424Z,13.63
2018-03-04T15:13:19.934Z,13.17
2018-03-04T15:15:47.936Z,15.97
2018-03-04T15:18:16.211Z,15.27
2018-03-04T15:20:43.742Z,15.80
2018-03-04T15:23:11.646Z,17.47
2018-03-04T15:25:39.174Z,14.53
2018-03-04T15:28:06.790Z,17.83
2018-03-04T15:30:34.430Z,21.60
2018-03-04T15:33:01.992Z,20.93
2018-03-04T15:35:29.506Z,22.17
2018-03-04T15:37:57.439Z,20.57
2018-03-04T15:40:24.968Z,24.60
2018-03-04T15:42:52.509Z,20.93
2018-03-04T15:45:20.016Z,22.60
2018-03-04T15:47:47.555Z,20.60
2018-03-04T15:50:15.188Z,21.20
2018-03-04T15:52:42.723Z,22.80
2018-03-04T15:55:10.268Z,21.37
2018-03-04T15:57:38.188Z,22.17
2018-03-04T16:00:05.718Z,18.87
2018-03-04T16:02:33.255Z,23.20
2018-03-04T16:05:01.252Z,17.53
2018-03-04T16:07:28.778Z,21.67
2018-03-04T16:09:56.787Z,21.67
2018-03-04T16:12:24.452Z,26.60
2018-03-04T16:14:51.971Z,22.03
2018-03-04T16:17:19.974Z,20.63
2018-03-04T16:19:47.592Z,18.73
2018-03-04T16:22:15.508Z,20.17
2018-03-04T16:24:43.051Z,17.23
2018-03-04T16:27:10.556Z,16.63
2018-03-04T16:29:38.080Z,15.73
2018-03-04T16:32:05.672Z,16.77
2018-03-04T16:34:33.241Z,15.87
2018-03-04T16:37:01.292Z,19.37
2018-03-04T16:39:28.891Z,15.70
2018-03-04T16:41:56.798Z,16.83
2018-03-04T16:44:24.323Z,24.17
2018-03-04T16:46:52.228Z,24.40
2018-03-04T16:49:19.887Z,21.20
2018-03-04T16:51:47.407Z,29.30
2018-03-04T16:54:15.353Z,22.13
2018-03-04T16:56:42.863Z,21.43
2018-03-04T16:59:10.384Z,24.77
2018-03-04T17:01:38.330Z,24.57
2018-03-04T17:04:05.850Z,19.90
2018-03-04T17:06:33.425Z,26.37
2018-03-04T17:09:00.950Z,21.57
2018-03-04T17:11:28.499Z,25.47
2018-03-04T17:13:56.004Z,25.47
2018-03-04T17:16:23.703Z,20.97
2018-03-04T17:18:51.229Z,21.10
2018-03-04T17:21:18.782Z,21.93
2018-03-04T17:23:46.305Z,24.53
2018-03-04T17:26:13.839Z,22.17
2018-03-04T17:28:42.096Z,22.77
2018-03-04T17:31:10.033Z,19.67
2018-03-04T17:33:37.555Z,20.13
2018-03-04T17:36:05.098Z,19.50
2018-03-04T17:38:33.029Z,24.17
2018-03-04T17:41:00.536Z,21.30
2018-03-04T17:43:28.066Z,26.93
2018-03-04T17:45:56.084Z,23.27
2018-03-04T17:48:23.657Z,22.33
2018-03-04T17:50:51.178Z,23.27
2018-03-04T17:53:19.090Z,18.03
2018-03-04T17:55:46.631Z,27.13
2018-03-04T17:58:14.278Z,25.27
2018-03-04T18:00:41.839Z,22.53
2018-03-04T18:03:09.372Z,19.80
2018-03-04T18:05:37.271Z,24.23
2018-03-04T18:08:04.807Z,25.27
2018-03-04T18:10:32.320Z,22.97
2018-03-04T18:12:59.850Z,23.43
2018-03-04T18:15:27.374Z,22.40
2018-03-04T18:17:54.915Z,31.17
2018-03-04T18:20:22.916Z,23.20
2018-03-04T18:22:50.447Z,30.73
2018-03-04T18:25:18.444Z,32.13
2018-03-04T18:27:46.005Z,39.33
2018-03-04T18:30:13.515Z,56.50
2018-03-04T18:32:41.123Z,51.07
2018-03-04T18:35:08.635Z,55.73
2018-03-04T18:37:36.154Z,44.63
2018-03-04T18:40:03.696Z,68.97
2018-03-04T18:42:31.376Z,202.37
2018-03-04T18:44:59.023Z,38.53
2018-03-04T18:47:26.541Z,65.33
2018-03-04T18:49:54.485Z,55.47
2018-03-04T18:52:22.657Z,59.77
2018-03-04T18:58:22.228Z,32.27
2018-03-04T19:00:49.770Z,48.60
2018-03-04T19:03:17.682Z,33.43
2018-03-04T19:05:45.207Z,33.10
2018-03-04T19:08:12.723Z,33.87
2018-03-04T19:10:40.261Z,34.97
2018-03-04T19:13:07.776Z,34.00
2018-03-04T19:15:35.715Z,32.47
2018-03-04T19:18:03.226Z,31.17
2018-03-04T19:20:30.882Z,31.33
2018-03-04T19:22:58.492Z,34.07
2018-03-04T19:25:26.028Z,34.67
2018-03-04T19:27:53.553Z,33.37
2018-03-04T19:30:21.083Z,36.07
2018-03-04T19:32:49.016Z,35.47
2018-03-04T19:35:16.552Z,29.40
2018-03-04T19:37:44.064Z,33.60
2018-03-04T19:40:12.490Z,35.00
2018-03-04T19:42:40.010Z,33.63
2018-03-04T19:45:07.935Z,32.50
2018-03-04T19:47:35.464Z,37.10
2018-03-04T19:50:02.991Z,38.53
2018-03-04T19:52:30.894Z,32.87
2018-03-04T19:54:58.491Z,34.53
2018-03-04T19:57:26.003Z,33.73
2018-03-04T19:59:53.511Z,37.23
2018-03-04T20:02:21.039Z,34.50
2018-03-04T20:04:48.551Z,34.07
2018-03-04T20:07:16.496Z,41.00
2018-03-04T20:09:44.490Z,31.20
2018-03-04T20:12:12.426Z,27.50
2018-03-04T20:14:39.949Z,27.37
2018-03-04T20:17:07.485Z,26.13
2018-03-04T20:19:35.391Z,27.23
2018-03-04T20:22:03.051Z,30.13
2018-03-04T20:24:30.596Z,24.57
2018-03-04T20:26:58.179Z,27.53
2018-03-04T20:29:25.729Z,26.83
2018-03-04T20:31:53.291Z,31.37
2018-03-04T20:34:20.801Z,33.27
2018-03-04T20:36:48.724Z,34.20
2018-03-04T20:39:16.264Z,31.07
2018-03-04T20:41:43.793Z,31.63
2018-03-04T20:44:11.295Z,29.27
2018-03-04T20:46:38.818Z,33.60
2018-03-04T20:49:06.447Z,34.07
2018-03-04T20:51:34.415Z,31.30
2018-03-04T20:54:02.335Z,31.33
2018-03-04T20:56:29.895Z,26.87
2018-03-04T20:58:57.428Z,27.00
2018-03-04T21:01:24.935Z,32.27
2018-03-04T21:03:52.511Z,28.03
2018-03-04T21:06:20.428Z,36.80
2018-03-04T21:08:47.982Z,37.27
2018-03-04T21:11:15.503Z,39.73
2018-03-04T21:13:43.428Z,44.23
2018-03-04T21:16:10.946Z,42.13
2018-03-04T21:18:38.495Z,43.67
2018-03-04T21:21:06.418Z,40.47
2018-03-04T21:23:34.363Z,41.50
2018-03-04T21:26:01.889Z,42.50
2018-03-04T21:28:29.419Z,43.67
2018-03-04T21:30:57.344Z,41.80
2018-03-04T21:33:24.875Z,44.40
2018-03-04T21:35:52.403Z,45.43
2018-03-04T21:38:19.964Z,48.20
2018-03-04T21:40:47.872Z,49.03
2018-03-04T21:43:15.407Z,42.83
2018-03-04T21:45:43.313Z,46.73
2018-03-04T21:48:11.069Z,47.57
2018-03-04T21:50:38.580Z,45.30
2018-03-04T21:53:06.511Z,47.57
2018-03-04T21:55:34.051Z,41.93
2018-03-04T21:58:01.725Z,41.97
2018-03-04T22:00:29.315Z,39.80
2018-03-04T22:02:57.256Z,38.93
2018-03-04T22:05:24.758Z,40.30
2018-03-04T22:07:52.765Z,39.00
2018-03-04T22:10:20.278Z,43.70
2018-03-04T22:12:48.221Z,45.50
2018-03-04T22:15:15.725Z,40.77
2018-03-04T22:17:43.272Z,46.23
2018-03-04T22:20:11.172Z,51.57
2018-03-04T22:22:38.708Z,46.13
2018-03-04T22:25:06.219Z,40.67
2018-03-04T22:27:33.730Z,45.33
2018-03-04T22:30:01.260Z,39.57
2018-03-04T22:32:29.269Z,39.43
2018-03-04T22:34:56.836Z,37.67
2018-03-04T22:37:24.356Z,43.37
2018-03-04T22:39:52.298Z,39.80
2018-03-04T22:42:19.902Z,42.17
2018-03-04T22:44:47.454Z,42.43
2018-03-04T22:47:15.354Z,41.70
2018-03-04T22:49:42.895Z,39.70
2018-03-04T22:52:10.425Z,41.53
2018-03-04T22:54:38.351Z,47.77
2018-03-04T22:57:05.874Z,42.53
2018-03-04T22:59:33.415Z,43.23
2018-03-04T23:02:01.331Z,45.53
2018-03-04T23:04:29.279Z,45.73
2018-03-04T23:06:56.791Z,35.23
2018-03-04T23:09:24.695Z,44.97
2018-03-04T23:11:52.238Z,45.43
2018-03-04T23:14:19.758Z,42.63
2018-03-04T23:16:47.307Z,48.73
2018-03-04T23:19:14.815Z,44.53
2018-03-04T23:21:42.361Z,45.50
2018-03-04T23:24:10.648Z,49.17
2018-03-04T23:26:38.224Z,48.30
2018-03-04T23:29:05.768Z,47.53
2018-03-04T23:31:33.308Z,49.87
2018-03-04T23:34:01.211Z,42.10
2018-03-04T23:36:28.733Z,46.50
2018-03-04T23:38:56.644Z,47.80
2018-03-04T23:41:24.188Z,48.50
2018-03-04T23:43:51.693Z,50.07
2018-03-04T23:46:19.251Z,43.13
2018-03-04T23:48:46.766Z,48.70
2018-03-04T23:51:14.291Z,46.73
2018-03-04T23:53:42.231Z,44.50
2018-03-04T23:56:09.766Z,43.57
2018-03-04T23:58:37.413Z,43.23
